sensor_id;sensor_type;location;lat;lon;timestamp;P1;durP1;ratioP1;P2;durP2;ratioP2
13415;SDS011;6779;50.150;8.680;2023-07-16T00:00:45;5.40;;;3.90;;
13415;SDS011;6779;50.150;8.680;2023-07-16T00:03:10;4.27;;;3.83;;
13415;SDS011;6779;50.150;8.680;2023-07-16T00:05:36;6.40;;;3.87;;
13415;SDS011;6779;50.150;8.680;2023-07-16T00:08:02;6.97;;;4.50;;
13415;SDS011;6779;50.150;8.680;2023-07-16T00:10:28;5.97;;;4.57;;
13415;SDS011;6779;50.150;8.680;2023-07-16T00:12:53;5.27;;;4.20;;
13415;SDS011;6779;50.150;8.680;2023-07-16T00:15:19;5.67;;;4.50;;
13415;SDS011;6779;50.150;8.680;2023-07-16T00:17:44;5.37;;;4.87;;
13415;SDS011;6779;50.150;8.680;2023-07-16T00:20:10;5.57;;;4.97;;
13415;SDS011;6779;50.150;8.680;2023-07-16T00:22:35;5.00;;;4.53;;
13415;SDS011;6779;50.150;8.680;2023-07-16T00:25:03;6.53;;;4.47;;
13415;SDS011;6779;50.150;8.680;2023-07-16T00:27:30;6.57;;;4.63;;
13415;SDS011;6779;50.150;8.680;2023-07-16T00:29:55;6.20;;;4.53;;
13415;SDS011;6779;50.150;8.680;2023-07-16T00:32:20;7.27;;;4.43;;
13415;SDS011;6779;50.150;8.680;2023-07-16T00:34:45;6.27;;;4.37;;
13415;SDS011;6779;50.150;8.680;2023-07-16T00:37:11;5.57;;;3.63;;
13415;SDS011;6779;50.150;8.680;2023-07-16T00:39:36;5.13;;;3.83;;
13415;SDS011;6779;50.150;8.680;2023-07-16T00:42:02;4.40;;;4.00;;
13415;SDS011;6779;50.150;8.680;2023-07-16T00:44:27;5.83;;;3.63;;
13415;SDS011;6779;50.150;8.680;2023-07-16T00:46:52;5.53;;;3.87;;
13415;SDS011;6779;50.150;8.680;2023-07-16T00:49:18;4.87;;;3.17;;
13415;SDS011;6779;50.150;8.680;2023-07-16T00:51:43;4.43;;;3.83;;
13415;SDS011;6779;50.150;8.680;2023-07-16T00:54:08;5.30;;;3.87;;
13415;SDS011;6779;50.150;8.680;2023-07-16T00:56:34;4.27;;;3.87;;
13415;SDS011;6779;50.150;8.680;2023-07-16T00:59:00;4.47;;;4.00;;
13415;SDS011;6779;50.150;8.680;2023-07-16T01:01:25;4.10;;;3.40;;
13415;SDS011;6779;50.150;8.680;2023-07-16T01:03:51;4.37;;;3.17;;
13415;SDS011;6779;50.150;8.680;2023-07-16T01:06:18;5.83;;;3.33;;
13415;SDS011;6779;50.150;8.680;2023-07-16T01:08:56;6.43;;;3.23;;
13415;SDS011;6779;50.150;8.680;2023-07-16T01:11:24;4.10;;;3.10;;
13415;SDS011;6779;50.150;8.680;2023-07-16T01:13:49;4.07;;;3.10;;
13415;SDS011;6779;50.150;8.680;2023-07-16T01:16:21;6.20;;;3.30;;
13415;SDS011;6779;50.150;8.680;2023-07-16T01:18:48;3.83;;;2.90;;
13415;SDS011;6779;50.150;8.680;2023-07-16T01:21:14;6.57;;;3.10;;
13415;SDS011;6779;50.150;8.680;2023-07-16T01:26:39;4.73;;;3.00;;
13415;SDS011;6779;50.150;8.680;2023-07-16T01:32:10;3.40;;;2.50;;
13415;SDS011;6779;50.150;8.680;2023-07-16T01:34:36;3.33;;;2.87;;
13415;SDS011;6779;50.150;8.680;2023-07-16T01:37:02;4.03;;;2.97;;
13415;SDS011;6779;50.150;8.680;2023-07-16T01:39:29;5.77;;;3.07;;
13415;SDS011;6779;50.150;8.680;2023-07-16T01:41:55;3.93;;;2.43;;
13415;SDS011;6779;50.150;8.680;2023-07-16T01:44:20;2.60;;;2.40;;
13415;SDS011;6779;50.150;8.680;2023-07-16T01:46:47;4.97;;;2.93;;
13415;SDS011;6779;50.150;8.680;2023-07-16T01:49:18;3.70;;;2.60;;
13415;SDS011;6779;50.150;8.680;2023-07-16T01:51:44;3.70;;;2.47;;
13415;SDS011;6779;50.150;8.680;2023-07-16T01:54:09;4.63;;;2.60;;
13415;SDS011;6779;50.150;8.680;2023-07-16T01:56:34;4.50;;;3.20;;
13415;SDS011;6779;50.150;8.680;2023-07-16T01:59:00;3.77;;;2.87;;
13415;SDS011;6779;50.150;8.680;2023-07-16T02:01:25;4.77;;;2.90;;
13415;SDS011;6779;50.150;8.680;2023-07-16T02:03:50;3.87;;;2.90;;
13415;SDS011;6779;50.150;8.680;2023-07-16T02:06:16;4.30;;;2.80;;
13415;SDS011;6779;50.150;8.680;2023-07-16T02:08:41;6.43;;;2.80;;
13415;SDS011;6779;50.150;8.680;2023-07-16T02:11:06;6.07;;;3.07;;
13415;SDS011;6779;50.150;8.680;2023-07-16T02:13:32;4.93;;;2.77;;
13415;SDS011;6779;50.150;8.680;2023-07-16T02:15:57;6.97;;;3.23;;
13415;SDS011;6779;50.150;8.680;2023-07-16T02:18:22;3.60;;;2.90;;
13415;SDS011;6779;50.150;8.680;2023-07-16T02:20:47;5.00;;;2.93;;
13415;SDS011;6779;50.150;8.680;2023-07-16T02:23:13;5.10;;;3.03;;
13415;SDS011;6779;50.150;8.680;2023-07-16T02:25:38;4.60;;;2.77;;
13415;SDS011;6779;50.150;8.680;2023-07-16T02:28:03;3.53;;;2.67;;
13415;SDS011;6779;50.150;8.680;2023-07-16T02:30:29;4.43;;;2.83;;
13415;SDS011;6779;50.150;8.680;2023-07-16T02:32:54;6.70;;;3.07;;
13415;SDS011;6779;50.150;8.680;2023-07-16T02:35:19;4.23;;;2.90;;
13415;SDS011;6779;50.150;8.680;2023-07-16T02:37:45;5.17;;;2.57;;
13415;SDS011;6779;50.150;8.680;2023-07-16T02:40:10;4.50;;;2.90;;
13415;SDS011;6779;50.150;8.680;2023-07-16T02:42:35;5.10;;;2.73;;
13415;SDS011;6779;50.150;8.680;2023-07-16T02:45:01;4.83;;;2.70;;
13415;SDS011;6779;50.150;8.680;2023-07-16T02:47:26;4.90;;;2.80;;
13415;SDS011;6779;50.150;8.680;2023-07-16T02:49:51;3.40;;;2.37;;
13415;SDS011;6779;50.150;8.680;2023-07-16T02:52:17;3.87;;;2.70;;
13415;SDS011;6779;50.150;8.680;2023-07-16T02:54:42;6.07;;;2.40;;
13415;SDS011;6779;50.150;8.680;2023-07-16T02:57:08;4.00;;;2.90;;
13415;SDS011;6779;50.150;8.680;2023-07-16T02:59:33;4.60;;;2.67;;
13415;SDS011;6779;50.150;8.680;2023-07-16T03:01:58;4.23;;;2.90;;
13415;SDS011;6779;50.150;8.680;2023-07-16T03:04:24;4.67;;;3.00;;
13415;SDS011;6779;50.150;8.680;2023-07-16T03:06:49;3.97;;;2.87;;
13415;SDS011;6779;50.150;8.680;2023-07-16T03:09:15;4.13;;;2.97;;
13415;SDS011;6779;50.150;8.680;2023-07-16T03:11:40;5.00;;;3.07;;
13415;SDS011;6779;50.150;8.680;2023-07-16T03:14:05;5.30;;;3.30;;
13415;SDS011;6779;50.150;8.680;2023-07-16T03:16:31;4.80;;;3.10;;
13415;SDS011;6779;50.150;8.680;2023-07-16T03:18:56;4.73;;;3.47;;
13415;SDS011;6779;50.150;8.680;2023-07-16T03:21:21;8.17;;;3.43;;
13415;SDS011;6779;50.150;8.680;2023-07-16T03:23:46;5.93;;;3.07;;
13415;SDS011;6779;50.150;8.680;2023-07-16T03:26:12;4.57;;;2.70;;
13415;SDS011;6779;50.150;8.680;2023-07-16T03:28:37;5.70;;;3.70;;
13415;SDS011;6779;50.150;8.680;2023-07-16T03:31:02;5.70;;;3.17;;
13415;SDS011;6779;50.150;8.680;2023-07-16T03:33:28;7.23;;;3.17;;
13415;SDS011;6779;50.150;8.680;2023-07-16T03:35:53;3.60;;;2.93;;
13415;SDS011;6779;50.150;8.680;2023-07-16T03:38:18;4.70;;;3.20;;
13415;SDS011;6779;50.150;8.680;2023-07-16T03:40:46;7.23;;;3.10;;
13415;SDS011;6779;50.150;8.680;2023-07-16T03:43:12;4.67;;;2.97;;
13415;SDS011;6779;50.150;8.680;2023-07-16T03:45:38;8.60;;;3.60;;
13415;SDS011;6779;50.150;8.680;2023-07-16T03:48:03;4.40;;;3.37;;
13415;SDS011;6779;50.150;8.680;2023-07-16T03:50:29;5.40;;;3.40;;
13415;SDS011;6779;50.150;8.680;2023-07-16T03:52:54;7.07;;;3.70;;
13415;SDS011;6779;50.150;8.680;2023-07-16T03:55:19;10.97;;;4.30;;
13415;SDS011;6779;50.150;8.680;2023-07-16T03:57:45;3.93;;;2.77;;
13415;SDS011;6779;50.150;8.680;2023-07-16T04:00:10;5.43;;;3.30;;
13415;SDS011;6779;50.150;8.680;2023-07-16T04:02:36;5.53;;;3.23;;
13415;SDS011;6779;50.150;8.680;2023-07-16T04:05:01;4.43;;;3.27;;
13415;SDS011;6779;50.150;8.680;2023-07-16T04:07:27;5.00;;;3.40;;
13415;SDS011;6779;50.150;8.680;2023-07-16T04:09:53;6.47;;;3.77;;
13415;SDS011;6779;50.150;8.680;2023-07-16T04:12:18;5.60;;;3.07;;
13415;SDS011;6779;50.150;8.680;2023-07-16T04:14:43;8.63;;;3.90;;
13415;SDS011;6779;50.150;8.680;2023-07-16T04:17:09;6.27;;;3.50;;
13415;SDS011;6779;50.150;8.680;2023-07-16T04:19:34;6.87;;;3.50;;
13415;SDS011;6779;50.150;8.680;2023-07-16T04:21:59;7.23;;;3.57;;
13415;SDS011;6779;50.150;8.680;2023-07-16T04:24:25;8.97;;;4.17;;
13415;SDS011;6779;50.150;8.680;2023-07-16T04:26:52;7.07;;;3.70;;
13415;SDS011;6779;50.150;8.680;2023-07-16T04:29:17;6.43;;;3.77;;
13415;SDS011;6779;50.150;8.680;2023-07-16T04:31:43;7.07;;;3.40;;
13415;SDS011;6779;50.150;8.680;2023-07-16T04:34:08;6.30;;;3.57;;
13415;SDS011;6779;50.150;8.680;2023-07-16T04:36:33;6.33;;;3.27;;
13415;SDS011;6779;50.150;8.680;2023-07-16T04:38:59;7.10;;;4.23;;
13415;SDS011;6779;50.150;8.680;2023-07-16T04:41:24;9.03;;;3.53;;
13415;SDS011;6779;50.150;8.680;2023-07-16T04:43:49;6.43;;;3.30;;
13415;SDS011;6779;50.150;8.680;2023-07-16T04:46:14;8.43;;;3.73;;
13415;SDS011;6779;50.150;8.680;2023-07-16T04:48:41;5.80;;;3.13;;
13415;SDS011;6779;50.150;8.680;2023-07-16T04:51:06;6.10;;;3.53;;
13415;SDS011;6779;50.150;8.680;2023-07-16T04:53:32;10.70;;;3.87;;
13415;SDS011;6779;50.150;8.680;2023-07-16T04:55:57;7.17;;;3.20;;
13415;SDS011;6779;50.150;8.680;2023-07-16T04:58:22;9.10;;;4.00;;
13415;SDS011;6779;50.150;8.680;2023-07-16T05:00:48;5.33;;;3.30;;
13415;SDS011;6779;50.150;8.680;2023-07-16T05:03:14;5.93;;;2.90;;
13415;SDS011;6779;50.150;8.680;2023-07-16T05:05:39;9.40;;;3.27;;
13415;SDS011;6779;50.150;8.680;2023-07-16T05:08:04;6.83;;;3.30;;
13415;SDS011;6779;50.150;8.680;2023-07-16T05:10:30;4.60;;;3.43;;
13415;SDS011;6779;50.150;8.680;2023-07-16T05:12:55;6.07;;;3.63;;
13415;SDS011;6779;50.150;8.680;2023-07-16T05:15:20;10.00;;;4.03;;
13415;SDS011;6779;50.150;8.680;2023-07-16T05:17:46;7.63;;;3.07;;
13415;SDS011;6779;50.150;8.680;2023-07-16T05:20:11;8.30;;;3.53;;
13415;SDS011;6779;50.150;8.680;2023-07-16T05:22:37;9.97;;;3.80;;
13415;SDS011;6779;50.150;8.680;2023-07-16T05:25:02;8.47;;;3.40;;
13415;SDS011;6779;50.150;8.680;2023-07-16T05:27:28;7.23;;;3.50;;
13415;SDS011;6779;50.150;8.680;2023-07-16T05:29:53;8.10;;;3.60;;
13415;SDS011;6779;50.150;8.680;2023-07-16T05:32:19;8.07;;;3.53;;
13415;SDS011;6779;50.150;8.680;2023-07-16T05:34:44;5.57;;;3.40;;
13415;SDS011;6779;50.150;8.680;2023-07-16T05:37:10;11.20;;;4.33;;
13415;SDS011;6779;50.150;8.680;2023-07-16T05:39:35;6.50;;;3.30;;
13415;SDS011;6779;50.150;8.680;2023-07-16T05:42:00;8.20;;;4.30;;
13415;SDS011;6779;50.150;8.680;2023-07-16T05:44:28;10.27;;;3.97;;
13415;SDS011;6779;50.150;8.680;2023-07-16T05:46:54;5.20;;;3.47;;
13415;SDS011;6779;50.150;8.680;2023-07-16T05:49:19;6.23;;;3.73;;
13415;SDS011;6779;50.150;8.680;2023-07-16T05:51:44;6.87;;;3.73;;
13415;SDS011;6779;50.150;8.680;2023-07-16T05:54:10;4.53;;;3.27;;
13415;SDS011;6779;50.150;8.680;2023-07-16T05:56:35;5.27;;;3.23;;
13415;SDS011;6779;50.150;8.680;2023-07-16T05:59:00;7.07;;;3.33;;
13415;SDS011;6779;50.150;8.680;2023-07-16T06:01:26;6.37;;;3.50;;
13415;SDS011;6779;50.150;8.680;2023-07-16T06:03:51;9.47;;;3.50;;
13415;SDS011;6779;50.150;8.680;2023-07-16T06:06:16;8.20;;;3.30;;
13415;SDS011;6779;50.150;8.680;2023-07-16T06:08:41;5.00;;;3.30;;
13415;SDS011;6779;50.150;8.680;2023-07-16T06:11:07;5.90;;;3.20;;
13415;SDS011;6779;50.150;8.680;2023-07-16T06:13:32;6.10;;;3.77;;
13415;SDS011;6779;50.150;8.680;2023-07-16T06:15:57;14.17;;;4.17;;
13415;SDS011;6779;50.150;8.680;2023-07-16T06:18:23;7.73;;;3.67;;
13415;SDS011;6779;50.150;8.680;2023-07-16T06:20:48;7.07;;;3.30;;
13415;SDS011;6779;50.150;8.680;2023-07-16T06:23:13;8.10;;;3.70;;
13415;SDS011;6779;50.150;8.680;2023-07-16T06:25:41;6.23;;;3.23;;
13415;SDS011;6779;50.150;8.680;2023-07-16T06:28:09;4.97;;;3.80;;
13415;SDS011;6779;50.150;8.680;2023-07-16T06:30:34;5.60;;;3.43;;
13415;SDS011;6779;50.150;8.680;2023-07-16T06:32:59;6.70;;;3.37;;
13415;SDS011;6779;50.150;8.680;2023-07-16T06:35:25;6.23;;;3.70;;
13415;SDS011;6779;50.150;8.680;2023-07-16T06:37:50;10.23;;;3.53;;
13415;SDS011;6779;50.150;8.680;2023-07-16T06:40:16;8.83;;;3.60;;
13415;SDS011;6779;50.150;8.680;2023-07-16T06:42:41;9.60;;;3.60;;
13415;SDS011;6779;50.150;8.680;2023-07-16T06:45:06;7.77;;;3.57;;
13415;SDS011;6779;50.150;8.680;2023-07-16T06:47:33;7.20;;;3.50;;
13415;SDS011;6779;50.150;8.680;2023-07-16T06:49:58;8.43;;;3.80;;
13415;SDS011;6779;50.150;8.680;2023-07-16T06:52:23;6.73;;;3.90;;
13415;SDS011;6779;50.150;8.680;2023-07-16T06:54:52;6.57;;;3.17;;
13415;SDS011;6779;50.150;8.680;2023-07-16T06:57:20;8.73;;;3.93;;
13415;SDS011;6779;50.150;8.680;2023-07-16T06:59:46;16.20;;;5.03;;
13415;SDS011;6779;50.150;8.680;2023-07-16T07:02:11;11.10;;;3.70;;
13415;SDS011;6779;50.150;8.680;2023-07-16T07:04:37;10.07;;;4.47;;
13415;SDS011;6779;50.150;8.680;2023-07-16T07:07:02;8.30;;;4.03;;
13415;SDS011;6779;50.150;8.680;2023-07-16T07:09:28;9.53;;;4.07;;
13415;SDS011;6779;50.150;8.680;2023-07-16T07:11:53;5.23;;;3.50;;
13415;SDS011;6779;50.150;8.680;2023-07-16T07:14:20;8.83;;;3.70;;
13415;SDS011;6779;50.150;8.680;2023-07-16T07:16:45;6.90;;;3.67;;
13415;SDS011;6779;50.150;8.680;2023-07-16T07:19:10;5.77;;;3.80;;
13415;SDS011;6779;50.150;8.680;2023-07-16T07:21:36;10.93;;;4.17;;
13415;SDS011;6779;50.150;8.680;2023-07-16T07:24:01;7.63;;;3.93;;
13415;SDS011;6779;50.150;8.680;2023-07-16T07:26:26;9.00;;;3.50;;
13415;SDS011;6779;50.150;8.680;2023-07-16T07:28:52;8.27;;;3.93;;
13415;SDS011;6779;50.150;8.680;2023-07-16T07:31:18;6.90;;;4.20;;
13415;SDS011;6779;50.150;8.680;2023-07-16T07:33:43;9.43;;;4.07;;
13415;SDS011;6779;50.150;8.680;2023-07-16T07:36:08;7.50;;;3.80;;
13415;SDS011;6779;50.150;8.680;2023-07-16T07:38:34;9.07;;;3.97;;
13415;SDS011;6779;50.150;8.680;2023-07-16T07:40:59;6.47;;;3.73;;
13415;SDS011;6779;50.150;8.680;2023-07-16T07:43:24;8.83;;;3.83;;
13415;SDS011;6779;50.150;8.680;2023-07-16T07:45:50;10.13;;;3.90;;
13415;SDS011;6779;50.150;8.680;2023-07-16T07:48:15;8.50;;;3.97;;
13415;SDS011;6779;50.150;8.680;2023-07-16T07:50:40;7.20;;;3.80;;
13415;SDS011;6779;50.150;8.680;2023-07-16T07:53:05;8.07;;;3.83;;
13415;SDS011;6779;50.150;8.680;2023-07-16T07:55:31;7.53;;;3.60;;
13415;SDS011;6779;50.150;8.680;2023-07-16T07:57:56;5.17;;;3.63;;
13415;SDS011;6779;50.150;8.680;2023-07-16T08:00:22;4.93;;;3.53;;
13415;SDS011;6779;50.150;8.680;2023-07-16T08:02:47;6.70;;;3.87;;
13415;SDS011;6779;50.150;8.680;2023-07-16T08:05:12;7.30;;;3.67;;
13415;SDS011;6779;50.150;8.680;2023-07-16T08:07:38;7.17;;;3.67;;
13415;SDS011;6779;50.150;8.680;2023-07-16T08:10:03;8.23;;;4.20;;
13415;SDS011;6779;50.150;8.680;2023-07-16T08:12:29;6.97;;;4.00;;
13415;SDS011;6779;50.150;8.680;2023-07-16T08:14:55;9.03;;;3.47;;
13415;SDS011;6779;50.150;8.680;2023-07-16T08:17:21;8.83;;;4.13;;
13415;SDS011;6779;50.150;8.680;2023-07-16T08:19:46;10.47;;;3.67;;
13415;SDS011;6779;50.150;8.680;2023-07-16T08:22:11;7.50;;;3.60;;
13415;SDS011;6779;50.150;8.680;2023-07-16T08:24:37;7.93;;;3.57;;
13415;SDS011;6779;50.150;8.680;2023-07-16T08:27:02;8.00;;;3.30;;
13415;SDS011;6779;50.150;8.680;2023-07-16T08:29:28;7.53;;;3.50;;
13415;SDS011;6779;50.150;8.680;2023-07-16T08:31:53;5.90;;;3.07;;
13415;SDS011;6779;50.150;8.680;2023-07-16T08:34:18;6.43;;;3.43;;
13415;SDS011;6779;50.150;8.680;2023-07-16T08:36:44;5.37;;;3.50;;
13415;SDS011;6779;50.150;8.680;2023-07-16T08:39:09;7.70;;;3.77;;
13415;SDS011;6779;50.150;8.680;2023-07-16T08:41:34;7.87;;;3.40;;
13415;SDS011;6779;50.150;8.680;2023-07-16T08:44:00;6.50;;;3.53;;
13415;SDS011;6779;50.150;8.680;2023-07-16T08:46:26;7.80;;;4.07;;
13415;SDS011;6779;50.150;8.680;2023-07-16T08:48:51;6.13;;;3.63;;
13415;SDS011;6779;50.150;8.680;2023-07-16T08:51:17;6.43;;;3.20;;
13415;SDS011;6779;50.150;8.680;2023-07-16T08:53:42;9.83;;;3.43;;
13415;SDS011;6779;50.150;8.680;2023-07-16T08:56:08;7.53;;;3.93;;
13415;SDS011;6779;50.150;8.680;2023-07-16T08:58:34;5.23;;;3.27;;
13415;SDS011;6779;50.150;8.680;2023-07-16T09:00:59;8.33;;;3.50;;
13415;SDS011;6779;50.150;8.680;2023-07-16T09:03:25;6.53;;;3.37;;
13415;SDS011;6779;50.150;8.680;2023-07-16T09:05:51;6.17;;;3.50;;
13415;SDS011;6779;50.150;8.680;2023-07-16T09:08:16;7.47;;;3.53;;
13415;SDS011;6779;50.150;8.680;2023-07-16T09:10:42;4.43;;;3.30;;
13415;SDS011;6779;50.150;8.680;2023-07-16T09:13:07;3.43;;;2.70;;
13415;SDS011;6779;50.150;8.680;2023-07-16T09:15:32;5.97;;;3.17;;
13415;SDS011;6779;50.150;8.680;2023-07-16T09:17:59;5.90;;;3.17;;
13415;SDS011;6779;50.150;8.680;2023-07-16T09:20:25;4.70;;;2.67;;
13415;SDS011;6779;50.150;8.680;2023-07-16T09:22:53;5.07;;;3.20;;
13415;SDS011;6779;50.150;8.680;2023-07-16T09:25:20;8.50;;;3.13;;
13415;SDS011;6779;50.150;8.680;2023-07-16T09:27:48;6.70;;;3.20;;
13415;SDS011;6779;50.150;8.680;2023-07-16T09:30:14;4.70;;;2.93;;
13415;SDS011;6779;50.150;8.680;2023-07-16T09:32:40;4.40;;;2.77;;
13415;SDS011;6779;50.150;8.680;2023-07-16T09:35:06;6.43;;;2.73;;
13415;SDS011;6779;50.150;8.680;2023-07-16T09:37:32;5.40;;;2.90;;
13415;SDS011;6779;50.150;8.680;2023-07-16T09:39:58;5.73;;;2.60;;
13415;SDS011;6779;50.150;8.680;2023-07-16T09:42:24;4.70;;;2.90;;
13415;SDS011;6779;50.150;8.680;2023-07-16T09:44:49;5.23;;;2.73;;
13415;SDS011;6779;50.150;8.680;2023-07-16T09:47:18;4.87;;;2.90;;
13415;SDS011;6779;50.150;8.680;2023-07-16T09:49:43;4.47;;;3.13;;
13415;SDS011;6779;50.150;8.680;2023-07-16T09:52:10;6.32;;;2.90;;
13415;SDS011;6779;50.150;8.680;2023-07-16T09:54:36;4.78;;;2.83;;
13415;SDS011;6779;50.150;8.680;2023-07-16T09:57:02;3.70;;;2.83;;
13415;SDS011;6779;50.150;8.680;2023-07-16T09:59:30;6.18;;;2.50;;
13415;SDS011;6779;50.150;8.680;2023-07-16T10:01:56;6.68;;;2.80;;
13415;SDS011;6779;50.150;8.680;2023-07-16T10:04:22;7.10;;;2.97;;
13415;SDS011;6779;50.150;8.680;2023-07-16T10:07:05;6.38;;;3.00;;
13415;SDS011;6779;50.150;8.680;2023-07-16T10:09:32;6.55;;;2.90;;
13415;SDS011;6779;50.150;8.680;2023-07-16T10:12:17;5.05;;;2.80;;
13415;SDS011;6779;50.150;8.680;2023-07-16T10:14:45;4.78;;;2.80;;
13415;SDS011;6779;50.150;8.680;2023-07-16T10:17:21;6.85;;;3.00;;
13415;SDS011;6779;50.150;8.680;2023-07-16T10:19:54;5.18;;;3.10;;
13415;SDS011;6779;50.150;8.680;2023-07-16T10:22:43;5.82;;;2.97;;
13415;SDS011;6779;50.150;8.680;2023-07-16T10:27:42;6.30;;;3.17;;
13415;SDS011;6779;50.150;8.680;2023-07-16T10:30:08;6.20;;;2.90;;
13415;SDS011;6779;50.150;8.680;2023-07-16T10:32:34;5.38;;;3.47;;
13415;SDS011;6779;50.150;8.680;2023-07-16T10:34:59;4.75;;;2.60;;
13415;SDS011;6779;50.150;8.680;2023-07-16T10:37:25;4.95;;;2.67;;
13415;SDS011;6779;50.150;8.680;2023-07-16T10:39:55;6.20;;;3.00;;
13415;SDS011;6779;50.150;8.680;2023-07-16T10:42:22;6.00;;;3.30;;
13415;SDS011;6779;50.150;8.680;2023-07-16T10:44:49;6.85;;;2.72;;
13415;SDS011;6779;50.150;8.680;2023-07-16T10:47:18;6.78;;;2.63;;
13415;SDS011;6779;50.150;8.680;2023-07-16T10:50:05;4.63;;;2.90;;
13415;SDS011;6779;50.150;8.680;2023-07-16T10:52:31;5.85;;;2.85;;
13415;SDS011;6779;50.150;8.680;2023-07-16T10:54:57;5.63;;;2.55;;
13415;SDS011;6779;50.150;8.680;2023-07-16T10:57:25;4.30;;;2.70;;
13415;SDS011;6779;50.150;8.680;2023-07-16T10:59:51;5.75;;;3.08;;
13415;SDS011;6779;50.150;8.680;2023-07-16T11:02:17;8.65;;;2.75;;
13415;SDS011;6779;50.150;8.680;2023-07-16T11:04:43;3.90;;;2.50;;
13415;SDS011;6779;50.150;8.680;2023-07-16T11:07:10;6.20;;;2.65;;
13415;SDS011;6779;50.150;8.680;2023-07-16T11:09:40;4.20;;;2.97;;
13415;SDS011;6779;50.150;8.680;2023-07-16T11:12:09;4.60;;;2.78;;
13415;SDS011;6779;50.150;8.680;2023-07-16T11:14:36;4.28;;;2.60;;
13415;SDS011;6779;50.150;8.680;2023-07-16T11:17:08;5.75;;;2.67;;
13415;SDS011;6779;50.150;8.680;2023-07-16T11:19:34;4.38;;;2.78;;
13415;SDS011;6779;50.150;8.680;2023-07-16T11:22:01;8.30;;;3.00;;
13415;SDS011;6779;50.150;8.680;2023-07-16T11:24:27;4.45;;;2.78;;
13415;SDS011;6779;50.150;8.680;2023-07-16T11:26:53;7.07;;;2.63;;
13415;SDS011;6779;50.150;8.680;2023-07-16T11:29:20;7.60;;;3.00;;
13415;SDS011;6779;50.150;8.680;2023-07-16T11:31:48;3.70;;;2.28;;
13415;SDS011;6779;50.150;8.680;2023-07-16T11:34:14;4.57;;;2.60;;
13415;SDS011;6779;50.150;8.680;2023-07-16T11:36:40;4.25;;;2.60;;
13415;SDS011;6779;50.150;8.680;2023-07-16T11:39:05;5.10;;;3.10;;
13415;SDS011;6779;50.150;8.680;2023-07-16T11:41:30;4.82;;;2.78;;
13415;SDS011;6779;50.150;8.680;2023-07-16T11:44:02;5.60;;;2.90;;
13415;SDS011;6779;50.150;8.680;2023-07-16T11:46:31;4.10;;;2.53;;
13415;SDS011;6779;50.150;8.680;2023-07-16T11:49:00;7.37;;;3.23;;
13415;SDS011;6779;50.150;8.680;2023-07-16T11:51:25;5.13;;;2.83;;
13415;SDS011;6779;50.150;8.680;2023-07-16T11:53:51;5.17;;;2.57;;
13415;SDS011;6779;50.150;8.680;2023-07-16T11:56:16;4.10;;;2.60;;
13415;SDS011;6779;50.150;8.680;2023-07-16T11:58:41;5.83;;;2.83;;
13415;SDS011;6779;50.150;8.680;2023-07-16T12:01:07;4.43;;;2.77;;
13415;SDS011;6779;50.150;8.680;2023-07-16T12:03:32;4.90;;;3.10;;
13415;SDS011;6779;50.150;8.680;2023-07-16T12:05:58;5.57;;;3.07;;
13415;SDS011;6779;50.150;8.680;2023-07-16T12:08:23;5.40;;;3.10;;
13415;SDS011;6779;50.150;8.680;2023-07-16T12:10:48;3.77;;;2.77;;
13415;SDS011;6779;50.150;8.680;2023-07-16T12:13:13;5.83;;;3.17;;
13415;SDS011;6779;50.150;8.680;2023-07-16T12:15:39;6.13;;;2.93;;
13415;SDS011;6779;50.150;8.680;2023-07-16T12:18:04;5.40;;;3.10;;
13415;SDS011;6779;50.150;8.680;2023-07-16T12:20:29;8.37;;;3.53;;
13415;SDS011;6779;50.150;8.680;2023-07-16T12:22:55;5.20;;;2.83;;
13415;SDS011;6779;50.150;8.680;2023-07-16T12:25:20;6.47;;;2.97;;
13415;SDS011;6779;50.150;8.680;2023-07-16T12:27:46;8.87;;;3.13;;
13415;SDS011;6779;50.150;8.680;2023-07-16T12:30:11;3.80;;;3.00;;
13415;SDS011;6779;50.150;8.680;2023-07-16T12:32:36;4.50;;;3.37;;
13415;SDS011;6779;50.150;8.680;2023-07-16T12:35:02;5.23;;;3.27;;
13415;SDS011;6779;50.150;8.680;2023-07-16T12:37:29;4.60;;;3.37;;
13415;SDS011;6779;50.150;8.680;2023-07-16T12:39:54;4.97;;;2.83;;
13415;SDS011;6779;50.150;8.680;2023-07-16T12:42:20;5.87;;;3.13;;
13415;SDS011;6779;50.150;8.680;2023-07-16T12:44:45;7.47;;;3.20;;
13415;SDS011;6779;50.150;8.680;2023-07-16T12:47:11;7.80;;;3.63;;
13415;SDS011;6779;50.150;8.680;2023-07-16T12:49:36;3.60;;;2.70;;
13415;SDS011;6779;50.150;8.680;2023-07-16T12:52:01;6.10;;;3.40;;
13415;SDS011;6779;50.150;8.680;2023-07-16T12:54:27;4.47;;;3.53;;
13415;SDS011;6779;50.150;8.680;2023-07-16T12:56:52;5.63;;;4.00;;
13415;SDS011;6779;50.150;8.680;2023-07-16T12:59:17;4.73;;;3.33;;
13415;SDS011;6779;50.150;8.680;2023-07-16T13:01:43;8.23;;;3.67;;
13415;SDS011;6779;50.150;8.680;2023-07-16T13:04:08;5.07;;;3.30;;
13415;SDS011;6779;50.150;8.680;2023-07-16T13:06:33;5.00;;;4.10;;
13415;SDS011;6779;50.150;8.680;2023-07-16T13:08:59;6.83;;;3.97;;
13415;SDS011;6779;50.150;8.680;2023-07-16T13:11:24;5.73;;;4.37;;
13415;SDS011;6779;50.150;8.680;2023-07-16T13:13:50;7.30;;;4.47;;
13415;SDS011;6779;50.150;8.680;2023-07-16T13:16:15;6.47;;;4.20;;
13415;SDS011;6779;50.150;8.680;2023-07-16T13:18:40;8.33;;;4.33;;
13415;SDS011;6779;50.150;8.680;2023-07-16T13:21:06;7.30;;;4.57;;
13415;SDS011;6779;50.150;8.680;2023-07-16T13:23:31;8.90;;;4.87;;
13415;SDS011;6779;50.150;8.680;2023-07-16T13:25:56;9.00;;;4.73;;
13415;SDS011;6779;50.150;8.680;2023-07-16T13:28:22;6.07;;;4.37;;
13415;SDS011;6779;50.150;8.680;2023-07-16T13:30:49;7.23;;;4.77;;
13415;SDS011;6779;50.150;8.680;2023-07-16T13:33:14;5.93;;;4.07;;
13415;SDS011;6779;50.150;8.680;2023-07-16T13:35:39;5.40;;;4.17;;
13415;SDS011;6779;50.150;8.680;2023-07-16T13:38:05;4.70;;;4.23;;
13415;SDS011;6779;50.150;8.680;2023-07-16T13:40:30;6.37;;;4.33;;
13415;SDS011;6779;50.150;8.680;2023-07-16T13:42:55;7.13;;;4.57;;
13415;SDS011;6779;50.150;8.680;2023-07-16T13:45:21;7.60;;;4.37;;
13415;SDS011;6779;50.150;8.680;2023-07-16T13:47:46;6.50;;;4.77;;
13415;SDS011;6779;50.150;8.680;2023-07-16T13:50:11;5.80;;;3.90;;
13415;SDS011;6779;50.150;8.680;2023-07-16T13:52:37;7.57;;;4.53;;
13415;SDS011;6779;50.150;8.680;2023-07-16T13:55:02;8.30;;;3.87;;
13415;SDS011;6779;50.150;8.680;2023-07-16T13:57:28;6.50;;;4.67;;
13415;SDS011;6779;50.150;8.680;2023-07-16T13:59:54;9.63;;;4.73;;
13415;SDS011;6779;50.150;8.680;2023-07-16T14:02:19;6.97;;;5.00;;
13415;SDS011;6779;50.150;8.680;2023-07-16T14:04:45;5.27;;;4.30;;
13415;SDS011;6779;50.150;8.680;2023-07-16T14:07:10;6.70;;;4.27;;
13415;SDS011;6779;50.150;8.680;2023-07-16T14:09:35;6.67;;;4.53;;
13415;SDS011;6779;50.150;8.680;2023-07-16T14:12:01;7.60;;;4.53;;
13415;SDS011;6779;50.150;8.680;2023-07-16T14:14:26;7.17;;;4.33;;
13415;SDS011;6779;50.150;8.680;2023-07-16T14:16:51;5.40;;;4.30;;
13415;SDS011;6779;50.150;8.680;2023-07-16T14:19:18;7.17;;;4.23;;
13415;SDS011;6779;50.150;8.680;2023-07-16T14:21:43;6.00;;;4.47;;
13415;SDS011;6779;50.150;8.680;2023-07-16T14:24:08;5.30;;;4.17;;
13415;SDS011;6779;50.150;8.680;2023-07-16T14:26:34;9.17;;;4.20;;
13415;SDS011;6779;50.150;8.680;2023-07-16T14:28:59;7.37;;;4.60;;
13415;SDS011;6779;50.150;8.680;2023-07-16T14:31:24;6.80;;;4.37;;
13415;SDS011;6779;50.150;8.680;2023-07-16T14:33:50;7.60;;;4.70;;
13415;SDS011;6779;50.150;8.680;2023-07-16T14:36:15;5.00;;;4.20;;
13415;SDS011;6779;50.150;8.680;2023-07-16T14:38:41;7.00;;;4.40;;
13415;SDS011;6779;50.150;8.680;2023-07-16T14:41:07;7.23;;;4.60;;
13415;SDS011;6779;50.150;8.680;2023-07-16T14:43:33;8.83;;;4.87;;
13415;SDS011;6779;50.150;8.680;2023-07-16T14:45:58;7.30;;;4.53;;
13415;SDS011;6779;50.150;8.680;2023-07-16T14:48:24;6.77;;;4.40;;
13415;SDS011;6779;50.150;8.680;2023-07-16T14:50:51;7.80;;;5.17;;
13415;SDS011;6779;50.150;8.680;2023-07-16T14:53:16;6.30;;;4.67;;
13415;SDS011;6779;50.150;8.680;2023-07-16T14:55:51;6.63;;;4.67;;
13415;SDS011;6779;50.150;8.680;2023-07-16T14:58:17;6.40;;;4.83;;
13415;SDS011;6779;50.150;8.680;2023-07-16T15:00:44;9.63;;;5.40;;